sensor_id;sensor_type;location;lat;lon;timestamp;pressure;altitude;pressure_sealevel;temperature;humidity
68320;BME280;55168;51.120;17.024;2022-07-23T00:00:00;100160;;;22.0;70.8
68320;BME280;55168;51.120;17.024;2022-07-23T00:01:00;100160;;;22.0;71.2
68320;BME280;55168;51.120;17.024;2022-07-23T00:02:00;100160;;;22.0;71.2
68320;BME280;55168;51.120;17.024;2022-07-23T00:03:00;100160;;;22.0;71.6
68320;BME280;55168;51.120;17.024;2022-07-23T00:04:00;100170;;;21.9;71.6
68320;BME280;55168;51.120;17.024;2022-07-23T00:05:00;100170;;;21.9;71.5
68320;BME280;55168;51.120;17.024;2022-07-23T00:06:00;100170;;;21.9;71.5
68320;BME280;55168;51.120;17.024;2022-07-23T00:07:00;100170;;;21.9;71.2
68320;BME280;55168;51.120;17.024;2022-07-23T00:08:00;100170;;;21.9;72.4
68320;BME280;55168;51.120;17.024;2022-07-23T00:09:00;100170;;;21.9;72.2
68320;BME280;55168;51.120;17.024;2022-07-23T00:10:00;100170;;;21.8;72.0
68320;BME280;55168;51.120;17.024;2022-07-23T00:11:00;100170;;;21.8;72.9
68320;BME280;55168;51.120;17.024;2022-07-23T00:12:00;100170;;;21.8;72.8
68320;BME280;55168;51.120;17.024;2022-07-23T00:13:00;100170;;;21.8;73.7
68320;BME280;55168;51.120;17.024;2022-07-23T00:14:00;100170;;;21.8;74.9
68320;BME280;55168;51.120;17.024;2022-07-23T00:15:00;100170;;;21.7;75.3
68320;BME280;55168;51.120;17.024;2022-07-23T00:16:00;100160;;;21.7;75.8
68320;BME280;55168;51.120;17.024;2022-07-23T00:17:00;100160;;;21.6;76.5
68320;BME280;55168;51.120;17.024;2022-07-23T00:18:00;100160;;;21.6;76.9
68320;BME280;55168;51.120;17.024;2022-07-23T00:19:00;100160;;;21.6;74.5
68320;BME280;55168;51.120;17.024;2022-07-23T00:20:00;100160;;;21.6;73.8
68320;BME280;55168;51.120;17.024;2022-07-23T00:21:00;100160;;;21.6;74.0
68320;BME280;55168;51.120;17.024;2022-07-23T00:22:00;100160;;;21.7;74.2
68320;BME280;55168;51.120;17.024;2022-07-23T00:23:00;100160;;;21.7;74.2
68320;BME280;55168;51.120;17.024;2022-07-23T00:24:00;100160;;;21.6;73.4
68320;BME280;55168;51.120;17.024;2022-07-23T00:25:00;100160;;;21.6;73.7
68320;BME280;55168;51.120;17.024;2022-07-23T00:26:00;100170;;;21.6;75.0
68320;BME280;55168;51.120;17.024;2022-07-23T00:27:00;100170;;;21.6;75.4
68320;BME280;55168;51.120;17.024;2022-07-23T00:28:00;100170;;;21.6;74.7
68320;BME280;55168;51.120;17.024;2022-07-23T00:29:00;100170;;;21.6;74.8
68320;BME280;55168;51.120;17.024;2022-07-23T00:30:00;100170;;;21.5;76.9
68320;BME280;55168;51.120;17.024;2022-07-23T00:31:00;100180;;;21.5;77.3
68320;BME280;55168;51.120;17.024;2022-07-23T00:32:00;100180;;;21.5;77.5
68320;BME280;55168;51.120;17.024;2022-07-23T00:33:01;100180;;;21.5;76.2
68320;BME280;55168;51.120;17.024;2022-07-23T00:34:00;100180;;;21.4;77.2
68320;BME280;55168;51.120;17.024;2022-07-23T00:35:00;100180;;;21.4;74.6
68320;BME280;55168;51.120;17.024;2022-07-23T00:36:00;100180;;;21.4;77.2
68320;BME280;55168;51.120;17.024;2022-07-23T00:37:00;100180;;;21.4;77.1
68320;BME280;55168;51.120;17.024;2022-07-23T00:38:00;100170;;;21.4;76.9
68320;BME280;55168;51.120;17.024;2022-07-23T00:39:00;100180;;;21.4;77.0
68320;BME280;55168;51.120;17.024;2022-07-23T00:40:00;100180;;;21.4;76.9
68320;BME280;55168;51.120;17.024;2022-07-23T00:41:00;100170;;;21.3;77.2
68320;BME280;55168;51.120;17.024;2022-07-23T00:42:00;100180;;;21.3;77.2
68320;BME280;55168;51.120;17.024;2022-07-23T00:43:00;100180;;;21.3;77.1
68320;BME280;55168;51.120;17.024;2022-07-23T00:45:00;100180;;;21.2;77.0
68320;BME280;55168;51.120;17.024;2022-07-23T00:46:00;100180;;;21.2;77.2
68320;BME280;55168;51.120;17.024;2022-07-23T00:47:00;100180;;;21.2;77.5
68320;BME280;55168;51.120;17.024;2022-07-23T00:48:00;100180;;;21.1;77.7
68320;BME280;55168;51.120;17.024;2022-07-23T00:49:00;100180;;;21.1;77.9
68320;BME280;55168;51.120;17.024;2022-07-23T00:50:00;100180;;;21.1;77.9
68320;BME280;55168;51.120;17.024;2022-07-23T00:51:00;100170;;;21.0;78.0
68320;BME280;55168;51.120;17.024;2022-07-23T00:52:01;100170;;;21.0;78.3
68320;BME280;55168;51.120;17.024;2022-07-23T00:53:00;100170;;;21.0;78.7
68320;BME280;55168;51.120;17.024;2022-07-23T00:54:00;100170;;;21.0;78.8
68320;BME280;55168;51.120;17.024;2022-07-23T00:55:00;100180;;;21.0;78.9
68320;BME280;55168;51.120;17.024;2022-07-23T00:56:00;100180;;;20.9;79.3
68320;BME280;55168;51.120;17.024;2022-07-23T00:57:00;100180;;;20.9;79.1
68320;BME280;55168;51.120;17.024;2022-07-23T00:58:00;100180;;;20.9;79.3
68320;BME280;55168;51.120;17.024;2022-07-23T00:59:00;100180;;;20.9;79.3
68320;BME280;55168;51.120;17.024;2022-07-23T01:00:00;100180;;;20.9;81.2
68320;BME280;55168;51.120;17.024;2022-07-23T01:01:00;100170;;;20.9;80.9
68320;BME280;55168;51.120;17.024;2022-07-23T01:02:00;100170;;;20.9;80.5
68320;BME280;55168;51.120;17.024;2022-07-23T01:03:00;100170;;;20.9;80.6
68320;BME280;55168;51.120;17.024;2022-07-23T01:04:00;100170;;;20.8;79.6
68320;BME280;55168;51.120;17.024;2022-07-23T01:05:00;100180;;;20.8;78.5
68320;BME280;55168;51.120;17.024;2022-07-23T01:06:00;100180;;;20.8;78.5
68320;BME280;55168;51.120;17.024;2022-07-23T01:07:00;100180;;;20.8;80.1
68320;BME280;55168;51.120;17.024;2022-07-23T01:08:00;100180;;;20.8;77.9
68320;BME280;55168;51.120;17.024;2022-07-23T01:09:00;100180;;;20.9;77.7
68320;BME280;55168;51.120;17.024;2022-07-23T01:10:00;100170;;;20.9;77.3
68320;BME280;55168;51.120;17.024;2022-07-23T01:11:00;100170;;;20.9;77.3
68320;BME280;55168;51.120;17.024;2022-07-23T01:12:00;100180;;;20.9;78.4
68320;BME280;55168;51.120;17.024;2022-07-23T01:13:00;100170;;;20.9;78.6
68320;BME280;55168;51.120;17.024;2022-07-23T01:14:07;100180;;;20.9;79.4
68320;BME280;55168;51.120;17.024;2022-07-23T01:15:00;100170;;;20.8;79.7
68320;BME280;55168;51.120;17.024;2022-07-23T01:16:00;100170;;;20.8;79.8
68320;BME280;55168;51.120;17.024;2022-07-23T01:17:00;100180;;;20.8;80.1
68320;BME280;55168;51.120;17.024;2022-07-23T01:18:00;100180;;;20.8;80.7
68320;BME280;55168;51.120;17.024;2022-07-23T01:19:00;100170;;;20.7;81.3
68320;BME280;55168;51.120;17.024;2022-07-23T01:20:00;100170;;;20.7;81.5
68320;BME280;55168;51.120;17.024;2022-07-23T01:21:00;100170;;;20.7;82.1
68320;BME280;55168;51.120;17.024;2022-07-23T01:22:01;100170;;;20.7;81.5
68320;BME280;55168;51.120;17.024;2022-07-23T01:23:00;100170;;;20.7;80.9
68320;BME280;55168;51.120;17.024;2022-07-23T01:24:00;100180;;;20.8;82.2
68320;BME280;55168;51.120;17.024;2022-07-23T01:25:00;100180;;;20.8;82.8
68320;BME280;55168;51.120;17.024;2022-07-23T01:26:00;100180;;;20.8;83.2
68320;BME280;55168;51.120;17.024;2022-07-23T01:27:00;100180;;;20.7;83.3
68320;BME280;55168;51.120;17.024;2022-07-23T01:28:00;100170;;;20.7;83.3
68320;BME280;55168;51.120;17.024;2022-07-23T01:29:00;100170;;;20.7;83.7
68320;BME280;55168;51.120;17.024;2022-07-23T01:30:00;100170;;;20.6;83.8
68320;BME280;55168;51.120;17.024;2022-07-23T01:31:00;100170;;;20.6;84.1
68320;BME280;55168;51.120;17.024;2022-07-23T01:32:00;100170;;;20.6;84.2
68320;BME280;55168;51.120;17.024;2022-07-23T01:33:00;100170;;;20.6;84.3
68320;BME280;55168;51.120;17.024;2022-07-23T01:34:00;100170;;;20.5;84.5
68320;BME280;55168;51.120;17.024;2022-07-23T01:35:00;100170;;;20.5;84.4
68320;BME280;55168;51.120;17.024;2022-07-23T01:36:00;100170;;;20.5;84.5
68320;BME280;55168;51.120;17.024;2022-07-23T01:37:00;100170;;;20.5;84.3
68320;BME280;55168;51.120;17.024;2022-07-23T01:38:00;100170;;;20.5;84.3
68320;BME280;55168;51.120;17.024;2022-07-23T01:39:00;100170;;;20.4;84.5
68320;BME280;55168;51.120;17.024;2022-07-23T01:40:00;100170;;;20.4;84.4
68320;BME280;55168;51.120;17.024;2022-07-23T01:41:00;100170;;;20.4;84.1
68320;BME280;55168;51.120;17.024;2022-07-23T01:42:00;100180;;;20.4;83.6
68320;BME280;55168;51.120;17.024;2022-07-23T01:43:00;100170;;;20.4;83.8
68320;BME280;55168;51.120;17.024;2022-07-23T01:44:00;100170;;;20.3;83.9
68320;BME280;55168;51.120;17.024;2022-07-23T01:45:00;100170;;;20.3;84.1
68320;BME280;55168;51.120;17.024;2022-07-23T01:46:00;100170;;;20.3;84.1
68320;BME280;55168;51.120;17.024;2022-07-23T01:47:00;100170;;;20.3;84.2
68320;BME280;55168;51.120;17.024;2022-07-23T01:48:00;100170;;;20.3;84.2
68320;BME280;55168;51.120;17.024;2022-07-23T01:49:00;100170;;;20.3;84.2
68320;BME280;55168;51.120;17.024;2022-07-23T01:50:00;100180;;;20.2;84.3
68320;BME280;55168;51.120;17.024;2022-07-23T01:51:00;100170;;;20.2;84.6
68320;BME280;55168;51.120;17.024;2022-07-23T01:52:00;100180;;;20.2;84.6
68320;BME280;55168;51.120;17.024;2022-07-23T01:53:00;100170;;;20.2;84.7
68320;BME280;55168;51.120;17.024;2022-07-23T01:54:00;100170;;;20.2;84.5
68320;BME280;55168;51.120;17.024;2022-07-23T01:55:00;100170;;;20.2;84.8
68320;BME280;55168;51.120;17.024;2022-07-23T01:56:00;100170;;;20.2;85.1
68320;BME280;55168;51.120;17.024;2022-07-23T01:57:00;100170;;;20.2;85.2
68320;BME280;55168;51.120;17.024;2022-07-23T01:58:00;100170;;;20.2;85.3
68320;BME280;55168;51.120;17.024;2022-07-23T01:59:00;100170;;;20.2;85.3
68320;BME280;55168;51.120;17.024;2022-07-23T02:00:00;100170;;;20.2;85.2
68320;BME280;55168;51.120;17.024;2022-07-23T02:01:00;100170;;;20.1;85.7
68320;BME280;55168;51.120;17.024;2022-07-23T02:02:00;100170;;;20.1;85.9
68320;BME280;55168;51.120;17.024;2022-07-23T02:03:00;100170;;;20.1;86.1
68320;BME280;55168;51.120;17.024;2022-07-23T02:04:00;100160;;;20.1;86.3
68320;BME280;55168;51.120;17.024;2022-07-23T02:05:00;100160;;;20.1;86.6
68320;BME280;55168;51.120;17.024;2022-07-23T02:06:00;100160;;;20.1;86.9
68320;BME280;55168;51.120;17.024;2022-07-23T02:07:00;100160;;;20.1;87.1
68320;BME280;55168;51.120;17.024;2022-07-23T02:08:00;100160;;;20.1;87.6
68320;BME280;55168;51.120;17.024;2022-07-23T02:09:00;100160;;;20.1;87.7
68320;BME280;55168;51.120;17.024;2022-07-23T02:10:00;100160;;;20.0;87.7
68320;BME280;55168;51.120;17.024;2022-07-23T02:11:00;100160;;;20.0;87.8
68320;BME280;55168;51.120;17.024;2022-07-23T02:12:00;100160;;;20.0;87.8
68320;BME280;55168;51.120;17.024;2022-07-23T02:13:00;100160;;;20.0;88.2
68320;BME280;55168;51.120;17.024;2022-07-23T02:14:00;100150;;;20.0;88.5
68320;BME280;55168;51.120;17.024;2022-07-23T02:15:00;100150;;;20.0;88.4
68320;BME280;55168;51.120;17.024;2022-07-23T02:16:00;100150;;;20.0;88.5
68320;BME280;55168;51.120;17.024;2022-07-23T02:17:00;100150;;;20.0;88.5
68320;BME280;55168;51.120;17.024;2022-07-23T02:18:00;100150;;;20.0;88.9
68320;BME280;55168;51.120;17.024;2022-07-23T02:19:00;100150;;;20.0;89.4
68320;BME280;55168;51.120;17.024;2022-07-23T02:20:00;100150;;;20.0;89.6
68320;BME280;55168;51.120;17.024;2022-07-23T02:21:00;100150;;;20.0;89.7
68320;BME280;55168;51.120;17.024;2022-07-23T02:22:00;100150;;;20.0;89.6
68320;BME280;55168;51.120;17.024;2022-07-23T02:23:00;100150;;;20.0;89.6
68320;BME280;55168;51.120;17.024;2022-07-23T02:24:00;100160;;;20.0;89.6
68320;BME280;55168;51.120;17.024;2022-07-23T02:25:00;100150;;;20.0;89.7
68320;BME280;55168;51.120;17.024;2022-07-23T02:26:00;100150;;;20.0;89.6
68320;BME280;55168;51.120;17.024;2022-07-23T02:27:00;100150;;;20.0;89.8
68320;BME280;55168;51.120;17.024;2022-07-23T02:28:00;100150;;;20.0;90.2
68320;BME280;55168;51.120;17.024;2022-07-23T02:29:00;100150;;;20.0;90.9
68320;BME280;55168;51.120;17.024;2022-07-23T02:30:00;100150;;;20.0;90.8
68320;BME280;55168;51.120;17.024;2022-07-23T02:31:00;100150;;;19.9;90.6
68320;BME280;55168;51.120;17.024;2022-07-23T02:32:00;100150;;;19.9;90.6
68320;BME280;55168;51.120;17.024;2022-07-23T02:33:00;100150;;;19.9;90.5
68320;BME280;55168;51.120;17.024;2022-07-23T02:34:00;100150;;;19.9;90.8
68320;BME280;55168;51.120;17.024;2022-07-23T02:35:00;100150;;;19.9;90.9
68320;BME280;55168;51.120;17.024;2022-07-23T02:36:00;100140;;;19.9;91.1
68320;BME280;55168;51.120;17.024;2022-07-23T02:37:00;100140;;;19.9;92.0
68320;BME280;55168;51.120;17.024;2022-07-23T02:38:00;100150;;;19.9;92.3
68320;BME280;55168;51.120;17.024;2022-07-23T02:39:00;100140;;;19.9;92.5
68320;BME280;55168;51.120;17.024;2022-07-23T02:40:00;100140;;;19.9;92.7
68320;BME280;55168;51.120;17.024;2022-07-23T02:41:00;100140;;;19.9;92.7
68320;BME280;55168;51.120;17.024;2022-07-23T02:42:00;100140;;;19.9;92.6
68320;BME280;55168;51.120;17.024;2022-07-23T02:43:00;100140;;;19.8;92.6
68320;BME280;55168;51.120;17.024;2022-07-23T02:44:00;100150;;;19.8;92.2
68320;BME280;55168;51.120;17.024;2022-07-23T02:45:00;100140;;;19.8;92.1
68320;BME280;55168;51.120;17.024;2022-07-23T02:46:00;100140;;;19.8;91.8
68320;BME280;55168;51.120;17.024;2022-07-23T02:47:00;100140;;;19.8;91.4
68320;BME280;55168;51.120;17.024;2022-07-23T02:48:00;100140;;;19.8;91.0
68320;BME280;55168;51.120;17.024;2022-07-23T02:49:00;100130;;;19.8;91.0
68320;BME280;55168;51.120;17.024;2022-07-23T02:50:00;100130;;;19.8;91.1
68320;BME280;55168;51.120;17.024;2022-07-23T02:51:00;100120;;;19.8;91.1
68320;BME280;55168;51.120;17.024;2022-07-23T02:52:00;100120;;;19.7;91.1
68320;BME280;55168;51.120;17.024;2022-07-23T02:53:00;100120;;;19.7;91.1
68320;BME280;55168;51.120;17.024;2022-07-23T02:54:00;100120;;;19.7;93.3
68320;BME280;55168;51.120;17.024;2022-07-23T02:55:00;100120;;;19.7;91.9
68320;BME280;55168;51.120;17.024;2022-07-23T02:56:00;100130;;;19.7;92.2
68320;BME280;55168;51.120;17.024;2022-07-23T02:57:00;100130;;;19.8;92.1
68320;BME280;55168;51.120;17.024;2022-07-23T02:58:00;100130;;;19.8;91.5
68320;BME280;55168;51.120;17.024;2022-07-23T02:59:00;100130;;;19.8;91.0
68320;BME280;55168;51.120;17.024;2022-07-23T03:00:00;100130;;;19.7;90.7
68320;BME280;55168;51.120;17.024;2022-07-23T03:01:00;100130;;;19.7;90.3
68320;BME280;55168;51.120;17.024;2022-07-23T03:02:00;100140;;;19.8;91.0
68320;BME280;55168;51.120;17.024;2022-07-23T03:03:00;100140;;;19.8;91.2
68320;BME280;55168;51.120;17.024;2022-07-23T03:04:00;100140;;;19.8;91.3
68320;BME280;55168;51.120;17.024;2022-07-23T03:05:00;100140;;;19.8;91.4
68320;BME280;55168;51.120;17.024;2022-07-23T03:06:00;100140;;;19.8;91.5
68320;BME280;55168;51.120;17.024;2022-07-23T03:07:00;100130;;;19.8;91.6
68320;BME280;55168;51.120;17.024;2022-07-23T03:08:00;100140;;;19.8;91.8
68320;BME280;55168;51.120;17.024;2022-07-23T03:09:00;100130;;;19.7;91.9
68320;BME280;55168;51.120;17.024;2022-07-23T03:10:00;100140;;;19.7;91.7
68320;BME280;55168;51.120;17.024;2022-07-23T03:11:00;100130;;;19.7;91.9
68320;BME280;55168;51.120;17.024;2022-07-23T03:12:00;100130;;;19.7;92.1
68320;BME280;55168;51.120;17.024;2022-07-23T03:13:00;100130;;;19.6;91.8
68320;BME280;55168;51.120;17.024;2022-07-23T03:14:00;100140;;;19.6;91.8
68320;BME280;55168;51.120;17.024;2022-07-23T03:15:00;100140;;;19.6;92.1
68320;BME280;55168;51.120;17.024;2022-07-23T03:16:00;100140;;;19.6;92.1
68320;BME280;55168;51.120;17.024;2022-07-23T03:17:00;100140;;;19.7;92.2
68320;BME280;55168;51.120;17.024;2022-07-23T03:18:00;100140;;;19.7;92.1
68320;BME280;55168;51.120;17.024;2022-07-23T03:19:00;100140;;;19.7;91.9
68320;BME280;55168;51.120;17.024;2022-07-23T03:20:00;100140;;;19.7;91.4
68320;BME280;55168;51.120;17.024;2022-07-23T03:21:00;100140;;;19.7;91.0
68320;BME280;55168;51.120;17.024;2022-07-23T03:22:00;100130;;;19.8;90.6
68320;BME280;55168;51.120;17.024;2022-07-23T03:23:00;100130;;;19.8;90.8
68320;BME280;55168;51.120;17.024;2022-07-23T03:24:00;100130;;;19.8;90.7
68320;BME280;55168;51.120;17.024;2022-07-23T03:25:00;100130;;;19.8;90.7
68320;BME280;55168;51.120;17.024;2022-07-23T03:26:00;100140;;;19.8;90.6
68320;BME280;55168;51.120;17.024;2022-07-23T03:27:00;100140;;;19.8;90.6
68320;BME280;55168;51.120;17.024;2022-07-23T03:28:00;100150;;;19.8;90.6
68320;BME280;55168;51.120;17.024;2022-07-23T03:29:00;100140;;;19.8;90.7
68320;BME280;55168;51.120;17.024;2022-07-23T03:30:00;100140;;;19.8;90.6
68320;BME280;55168;51.120;17.024;2022-07-23T03:31:00;100140;;;19.8;89.8
68320;BME280;55168;51.120;17.024;2022-07-23T03:32:00;100150;;;19.9;89.6
68320;BME280;55168;51.120;17.024;2022-07-23T03:33:00;100140;;;19.9;89.4
68320;BME280;55168;51.120;17.024;2022-07-23T03:34:00;100140;;;19.9;90.1
68320;BME280;55168;51.120;17.024;2022-07-23T03:35:00;100150;;;19.9;90.1
68320;BME280;55168;51.120;17.024;2022-07-23T03:36:00;100150;;;19.9;90.0
68320;BME280;55168;51.120;17.024;2022-07-23T03:37:00;100150;;;20.0;89.4
68320;BME280;55168;51.120;17.024;2022-07-23T03:38:00;100150;;;20.0;87.7
68320;BME280;55168;51.120;17.024;2022-07-23T03:39:00;100140;;;20.1;87.9
68320;BME280;55168;51.120;17.024;2022-07-23T03:40:00;100140;;;20.1;88.6
68320;BME280;55168;51.120;17.024;2022-07-23T03:41:00;100140;;;20.1;88.7
68320;BME280;55168;51.120;17.024;2022-07-23T03:42:00;100140;;;20.2;88.6
68320;BME280;55168;51.120;17.024;2022-07-23T03:43:00;100150;;;20.2;88.0
68320;BME280;55168;51.120;17.024;2022-07-23T03:44:00;100140;;;20.2;88.0
68320;BME280;55168;51.120;17.024;2022-07-23T03:45:00;100140;;;20.2;88.7
68320;BME280;55168;51.120;17.024;2022-07-23T03:46:00;100140;;;20.2;88.4
68320;BME280;55168;51.120;17.024;2022-07-23T03:47:00;100140;;;20.3;88.2
68320;BME280;55168;51.120;17.024;2022-07-23T03:48:00;100140;;;20.3;88.2
68320;BME280;55168;51.120;17.024;2022-07-23T03:49:00;100150;;;20.3;87.8
68320;BME280;55168;51.120;17.024;2022-07-23T03:50:00;100140;;;20.4;87.7
68320;BME280;55168;51.120;17.024;2022-07-23T03:51:00;100150;;;20.4;87.3
68320;BME280;55168;51.120;17.024;2022-07-23T03:52:00;100150;;;20.4;87.8
68320;BME280;55168;51.120;17.024;2022-07-23T03:53:00;100150;;;20.5;88.2
68320;BME280;55168;51.120;17.024;2022-07-23T03:54:00;100150;;;20.5;88.6
68320;BME280;55168;51.120;17.024;2022-07-23T03:55:00;100150;;;20.5;88.4
68320;BME280;55168;51.120;17.024;2022-07-23T03:56:00;100150;;;20.5;88.6
68320;BME280;55168;51.120;17.024;2022-07-23T03:57:00;100150;;;20.5;86.8
68320;BME280;55168;51.120;17.024;2022-07-23T03:58:00;100160;;;20.6;86.5
68320;BME280;55168;51.120;17.024;2022-07-23T03:59:00;100150;;;20.6;86.9
68320;BME280;55168;51.120;17.024;2022-07-23T04:00:00;100160;;;20.7;86.8
68320;BME280;55168;51.120;17.024;2022-07-23T04:01:00;100160;;;20.7;86.1
68320;BME280;55168;51.120;17.024;2022-07-23T04:02:00;100160;;;20.8;86.2
68320;BME280;55168;51.120;17.024;2022-07-23T04:03:00;100160;;;20.8;86.1
68320;BME280;55168;51.120;17.024;2022-07-23T04:04:00;100150;;;20.8;85.8
68320;BME280;55168;51.120;17.024;2022-07-23T04:05:00;100160;;;20.9;85.1
68320;BME280;55168;51.120;17.024;2022-07-23T04:06:00;100160;;;21.0;84.6
68320;BME280;55168;51.120;17.024;2022-07-23T04:07:00;100150;;;21.0;81.5
68320;BME280;55168;51.120;17.024;2022-07-23T04:08:00;100150;;;21.1;81.5
68320;BME280;55168;51.120;17.024;2022-07-23T04:09:00;100150;;;21.1;83.6
68320;BME280;55168;51.120;17.024;2022-07-23T04:10:00;100150;;;21.2;81.1
68320;BME280;55168;51.120;17.024;2022-07-23T04:11:00;100150;;;21.3;81.4
68320;BME280;55168;51.120;17.024;2022-07-23T04:12:00;100150;;;21.3;80.9
68320;BME280;55168;51.120;17.024;2022-07-23T04:13:00;100140;;;21.4;81.1
68320;BME280;55168;51.120;17.024;2022-07-23T04:14:00;100140;;;21.4;83.3
68320;BME280;55168;51.120;17.024;2022-07-23T04:15:00;100140;;;21.5;81.5
68320;BME280;55168;51.120;17.024;2022-07-23T04:16:00;100140;;;21.5;81.3
68320;BME280;55168;51.120;17.024;2022-07-23T04:17:00;100140;;;21.6;78.6
68320;BME280;55168;51.120;17.024;2022-07-23T04:18:00;100130;;;21.7;78.4
68320;BME280;55168;51.120;17.024;2022-07-23T04:19:00;100130;;;21.8;77.1
68320;BME280;55168;51.120;17.024;2022-07-23T04:20:00;100130;;;21.8;76.2
68320;BME280;55168;51.120;17.024;2022-07-23T04:21:00;100130;;;21.8;77.0
68320;BME280;55168;51.120;17.024;2022-07-23T04:22:00;100120;;;21.9;75.4
68320;BME280;55168;51.120;17.024;2022-07-23T04:23:00;100130;;;21.9;75.0
68320;BME280;55168;51.120;17.024;2022-07-23T04:24:00;100120;;;21.8;75.0
68320;BME280;55168;51.120;17.024;2022-07-23T04:25:00;100120;;;21.8;75.1
68320;BME280;55168;51.120;17.024;2022-07-23T04:26:00;100120;;;21.9;74.8
68320;BME280;55168;51.120;17.024;2022-07-23T04:27:00;100120;;;21.9;75.1
68320;BME280;55168;51.120;17.024;2022-07-23T04:28:00;100120;;;21.8;76.2
68320;BME280;55168;51.120;17.024;2022-07-23T04:29:00;100120;;;21.9;75.6
68320;BME280;55168;51.120;17.024;2022-07-23T04:30:00;100110;;;21.9;75.3
68320;BME280;55168;51.120;17.024;2022-07-23T04:31:00;100110;;;21.9;75.6
68320;BME280;55168;51.120;17.024;2022-07-23T04:32:00;100110;;;21.9;75.5
68320;BME280;55168;51.120;17.024;2022-07-23T04:33:00;100100;;;21.9;75.4
68320;BME280;55168;51.120;17.024;2022-07-23T04:34:00;100110;;;22.0;75.8
68320;BME280;55168;51.120;17.024;2022-07-23T04:35:00;100110;;;22.0;75.0
68320;BME280;55168;51.120;17.024;2022-07-23T04:36:00;100100;;;22.1;74.5
68320;BME280;55168;51.120;17.024;2022-07-23T04:37:00;100110;;;22.1;73.9
68320;BME280;55168;51.120;17.024;2022-07-23T04:38:00;100110;;;22.0;74.0
68320;BME280;55168;51.120;17.024;2022-07-23T04:39:00;100100;;;22.0;74.4
68320;BME280;55168;51.120;17.024;2022-07-23T04:40:00;100110;;;22.0;73.8
68320;BME280;55168;51.120;17.024;2022-07-23T04:41:00;100110;;;22.1;73.1
68320;BME280;55168;51.120;17.024;2022-07-23T04:42:00;100110;;;22.1;73.4
68320;BME280;55168;51.120;17.024;2022-07-23T04:43:00;100110;;;22.1;72.9
68320;BME280;55168;51.120;17.024;2022-07-23T04:44:00;100110;;;22.1;73.0
68320;BME280;55168;51.120;17.024;2022-07-23T04:45:00;100110;;;22.0;73.8
68320;BME280;55168;51.120;17.024;2022-07-23T04:46:00;100100;;;22.0;73.7
68320;BME280;55168;51.120;17.024;2022-07-23T04:47:00;100100;;;22.1;74.2
68320;BME280;55168;51.120;17.024;2022-07-23T04:48:00;100100;;;22.2;73.4
68320;BME280;55168;51.120;17.024;2022-07-23T04:49:00;100100;;;22.2;73.4
68320;BME280;55168;51.120;17.024;2022-07-23T04:50:00;100100;;;22.3;74.0
68320;BME280;55168;51.120;17.024;2022-07-23T04:51:00;100100;;;22.4;73.1
68320;BME280;55168;51.120;17.024;2022-07-23T04:52:00;100100;;;22.5;72.6
68320;BME280;55168;51.120;17.024;2022-07-23T04:53:00;100090;;;22.6;72.2
68320;BME280;55168;51.120;17.024;2022-07-23T04:54:00;100090;;;22.8;71.4
68320;BME280;55168;51.120;17.024;2022-07-23T04:55:00;100090;;;22.9;70.7
68320;BME280;55168;51.120;17.024;2022-07-23T04:56:00;100080;;;22.9;70.5
68320;BME280;55168;51.120;17.024;2022-07-23T04:57:00;100080;;;23.0;70.2
68320;BME280;55168;51.120;17.024;2022-07-23T04:58:00;100080;;;23.0;70.2
68320;BME280;55168;51.120;17.024;2022-07-23T04:59:00;100080;;;23.1;69.4
68320;BME280;55168;51.120;17.024;2022-07-23T05:00:00;100080;;;23.1;69.2
68320;BME280;55168;51.120;17.024;2022-07-23T05:01:00;100080;;;23.0;69.9
68320;BME280;55168;51.120;17.024;2022-07-23T05:02:00;100070;;;23.0;69.8
68320;BME280;55168;51.120;17.024;2022-07-23T05:03:00;100070;;;22.9;70.3
68320;BME280;55168;51.120;17.024;2022-07-23T05:04:00;100070;;;22.9;70.5
68320;BME280;55168;51.120;17.024;2022-07-23T05:05:00;100070;;;22.9;70.0
68320;BME280;55168;51.120;17.024;2022-07-23T05:06:00;100070;;;22.8;70.9
68320;BME280;55168;51.120;17.024;2022-07-23T05:07:00;100060;;;22.6;71.1
68320;BME280;55168;51.120;17.024;2022-07-23T05:08:00;100070;;;22.6;72.8
68320;BME280;55168;51.120;17.024;2022-07-23T05:09:00;100060;;;22.5;72.4
68320;BME280;55168;51.120;17.024;2022-07-23T05:10:00;100060;;;22.5;72.4
68320;BME280;55168;51.120;17.024;2022-07-23T05:11:00;100060;;;22.5;73.3
68320;BME280;55168;51.120;17.024;2022-07-23T05:12:00;100060;;;22.6;73.7
68320;BME280;55168;51.120;17.024;2022-07-23T05:13:00;100060;;;22.5;72.3
68320;BME280;55168;51.120;17.024;2022-07-23T05:14:00;100050;;;22.4;73.1
68320;BME280;55168;51.120;17.024;2022-07-23T05:15:00;100060;;;22.4;74.1
68320;BME280;55168;51.120;17.024;2022-07-23T05:16:00;100050;;;22.4;74.1
68320;BME280;55168;51.120;17.024;2022-07-23T05:17:00;100060;;;22.4;75.9
68320;BME280;55168;51.120;17.024;2022-07-23T05:18:00;100060;;;22.5;74.0
68320;BME280;55168;51.120;17.024;2022-07-23T05:19:00;100050;;;22.5;74.0
68320;BME280;55168;51.120;17.024;2022-07-23T05:20:00;100050;;;22.4;73.9
68320;BME280;55168;51.120;17.024;2022-07-23T05:21:00;100050;;;22.5;74.1
68320;BME280;55168;51.120;17.024;2022-07-23T05:22:00;100050;;;22.4;74.3
68320;BME280;55168;51.120;17.024;2022-07-23T05:23:00;100050;;;22.4;73.4
68320;BME280;55168;51.120;17.024;2022-07-23T05:24:00;100050;;;22.4;73.6
68320;BME280;55168;51.120;17.024;2022-07-23T05:25:00;100050;;;22.5;73.3
68320;BME280;55168;51.120;17.024;2022-07-23T05:26:00;100050;;;22.5;73.3
68320;BME280;55168;51.120;17.024;2022-07-23T05:27:00;100040;;;22.5;73.1
68320;BME280;55168;51.120;17.024;2022-07-23T05:28:00;100040;;;22.5;73.2
68320;BME280;55168;51.120;17.024;2022-07-23T05:29:00;100040;;;22.5;73.2
68320;BME280;55168;51.120;17.024;2022-07-23T05:30:00;100040;;;22.4;73.5
68320;BME280;55168;51.120;17.024;2022-07-23T05:31:00;100040;;;22.5;73.2